CheckWX is a tool to help pilots better visualize weather data.  It is not intended as a substitute for an official pre-flight weather briefing.

01:32:30 UTC

KPRC TAF
Ernest A Love Field Airport
Prescott, Arizona, USA
KPRC 142322Z 1500/1524 VRB05KT P6SM SKC

Oct-15@
00:00 UTC

Oct-15 @ 00:00 UTC

Oct-16@
00:00 UTC

Oct-16 @ 00:00 UTC

KPRC 142322Z 1500/1524 VRB05KT P6SM SKC
Wind
  • Variable at 5 KTS
Cloud Levels
  • Clear skies